Time;durP1;ratioP1;P1;durP2;ratioP2;P2;SDS_P1;SDS_P2;PMS_P1;PMS_P2;Temp;Humidity;BMP_temperature;BMP_pressure;BME280_temperature;BME280_humidity;BME280_pressure;Samples;Min_cycle;Max_cycle;Signal;HPM_P1;HPM_P2
2024/02/08 00:02:01;;;;;;;25.13;12.30;;;;;;;9.74;81.20;99151.94;5073242;28;20044;-44
2024/02/08 00:04:31;;;;;;;24.50;13.52;;;;;;;9.69;81.29;99154.97;5073501;28;20635;-46
2024/02/08 00:07:00;;;;;;;23.33;12.70;;;;;;;9.73;81.30;99151.09;5073534;28;20123;-45
2024/02/08 00:09:28;;;;;;;23.30;13.45;;;;;;;9.57;82.07;99139.91;5073219;28;20047;-46
2024/02/08 00:11:57;;;;;;;22.95;12.73;;;;;;;9.47;83.01;99146.88;5073030;28;20049;-46
2024/02/08 00:14:25;;;;;;;24.52;13.02;;;;;;;9.54;83.55;99145.44;5073045;28;20044;-45
2024/02/08 00:16:54;;;;;;;23.67;13.70;;;;;;;9.62;83.08;99142.22;5073342;28;20048;-45
2024/02/08 00:19:24;;;;;;;25.85;13.48;;;;;;;9.57;82.72;99147.91;5072846;28;20083;-45
2024/02/08 00:21:52;;;;;;;23.98;13.20;;;;;;;9.60;82.92;99136.16;5072937;28;20417;-46
2024/02/08 00:24:21;;;;;;;23.42;13.02;;;;;;;9.58;83.27;99136.28;5072765;28;20048;-45
2024/02/08 00:26:49;;;;;;;24.50;12.50;;;;;;;9.57;83.34;99149.72;5071972;28;20044;-45
2024/02/08 00:29:17;;;;;;;22.75;13.10;;;;;;;9.49;83.70;99142.28;5072964;28;20051;-45
2024/02/08 00:31:48;;;;;;;20.80;11.52;;;;;;;9.48;84.04;99143.25;5072791;28;20053;-45
2024/02/08 00:34:18;;;;;;;22.92;12.82;;;;;;;9.50;84.14;99140.47;5072753;28;20413;-45
2024/02/08 00:36:49;;;;;;;22.25;12.15;;;;;;;9.52;83.84;99142.03;5072633;28;20098;-46
2024/02/08 00:39:17;;;;;;;23.73;12.20;;;;;;;9.53;83.87;99133.09;5072545;28;20040;-45
2024/02/08 00:41:49;;;;;;;21.15;11.93;;;;;;;9.66;83.11;99138.38;5073022;28;20048;-46
2024/02/08 00:44:17;;;;;;;20.95;11.63;;;;;;;9.67;82.35;99140.06;5072968;28;20055;-45
2024/02/08 00:46:46;;;;;;;22.27;12.40;;;;;;;9.67;82.51;99135.59;5073071;28;20111;-45
2024/02/08 00:49:14;;;;;;;23.58;12.52;;;;;;;9.59;82.60;99132.66;5073356;28;20049;-45
2024/02/08 00:51:42;;;;;;;21.00;11.80;;;;;;;9.56;83.43;99137.38;5072657;28;20040;-45
2024/02/08 00:54:12;;;;;;;19.27;11.40;;;;;;;9.59;83.25;99135.31;5072234;28;20056;-45
2024/02/08 00:56:41;;;;;;;17.75;10.73;;;;;;;9.65;82.85;99126.00;5072198;28;20048;-45
2024/02/08 00:59:10;;;;;;;23.92;11.15;;;;;;;9.73;82.27;99124.47;5072257;28;20040;-44
2024/02/08 01:01:40;;;;;;;19.27;11.57;;;;;;;9.75;81.98;99127.91;5071935;28;20066;-45
2024/02/08 01:04:09;;;;;;;21.55;11.80;;;;;;;9.82;81.35;99132.75;5071779;28;20098;-47
2024/02/08 01:06:42;;;;;;;19.58;10.52;;;;;;;9.73;81.87;99129.81;5071857;28;20053;-45
2024/02/08 01:09:11;;;;;;;22.40;11.43;;;;;;;9.75;81.57;99130.56;5072349;28;20064;-44
2024/02/08 01:11:40;;;;;;;21.17;10.65;;;;;;;9.79;81.61;99125.00;5071989;28;20044;-46
2024/02/08 01:14:08;;;;;;;20.48;11.10;;;;;;;9.73;81.97;99119.16;5071793;28;20056;-47
2024/02/08 01:16:45;;;;;;;20.73;11.88;;;;;;;9.72;82.13;99130.75;5071748;28;20067;-49
2024/02/08 01:19:14;;;;;;;20.30;10.73;;;;;;;9.79;82.02;99127.66;5071752;28;20052;-45
2024/02/08 01:21:44;;;;;;;22.98;10.90;;;;;;;9.78;82.05;99120.63;5071998;28;20144;-45
2024/02/08 01:24:18;;;;;;;17.90;10.68;;;;;;;9.81;82.13;99115.06;5071996;28;20067;-46
2024/02/08 01:26:46;;;;;;;17.65;10.05;;;;;;;9.87;81.35;99117.28;5071552;28;20055;-45
2024/02/08 01:29:15;;;;;;;18.42;11.02;;;;;;;9.88;81.53;99117.16;5071599;28;20094;-45
2024/02/08 01:31:43;;;;;;;18.17;10.13;;;;;;;9.88;81.36;99116.31;5071414;28;20145;-47
2024/02/08 01:34:12;;;;;;;19.55;10.68;;;;;;;9.83;81.51;99116.66;5071799;28;20041;-45
2024/02/08 01:36:41;;;;;;;17.90;10.35;;;;;;;9.83;81.76;99110.47;5071700;28;20059;-45
2024/02/08 01:39:13;;;;;;;22.38;10.38;;;;;;;9.88;81.59;99106.50;5070640;28;20132;-46
2024/02/08 01:41:43;;;;;;;17.75;9.65;;;;;;;9.91;81.05;99105.41;5071298;28;20079;-46
2024/02/08 01:44:13;;;;;;;18.55;10.32;;;;;;;9.94;81.32;99102.50;5071257;28;20051;-44
2024/02/08 01:46:42;;;;;;;16.90;10.30;;;;;;;9.96;81.16;99105.94;5071227;28;20474;-47
2024/02/08 01:49:15;;;;;;;15.15;9.48;;;;;;;10.00;80.86;99102.06;5071218;28;20044;-46
2024/02/08 01:51:44;;;;;;;20.23;10.65;;;;;;;10.03;80.84;99093.81;5071297;28;20044;-48
2024/02/08 01:54:14;;;;;;;16.88;10.25;;;;;;;10.00;80.21;99102.06;5071247;28;20409;-46
2024/02/08 01:56:44;;;;;;;17.08;9.45;;;;;;;10.09;79.78;99097.84;5071199;28;20133;-47
2024/02/08 01:59:13;;;;;;;19.55;9.90;;;;;;;10.04;79.89;99090.22;5071479;28;20500;-47
2024/02/08 02:01:46;;;;;;;16.65;10.07;;;;;;;10.03;79.90;99088.50;5071469;28;20047;-47
2024/02/08 02:04:15;;;;;;;17.10;9.98;;;;;;;9.96;80.56;99081.97;5071172;28;20127;-45
2024/02/08 02:06:45;;;;;;;20.10;10.77;;;;;;;9.83;82.42;99091.81;5071100;28;20055;-46
2024/02/08 02:09:23;;;;;;;16.98;9.82;;;;;;;9.57;84.23;99092.00;5070954;28;20190;-46
2024/02/08 02:11:59;;;;;;;17.90;10.65;;;;;;;9.29;87.97;99089.66;5071018;28;20134;-46
2024/02/08 02:14:30;;;;;;;18.92;10.73;;;;;;;9.37;88.40;99088.13;5071088;28;20125;-47
2024/02/08 02:17:12;;;;;;;21.08;11.60;;;;;;;9.45;88.43;99092.88;5070866;28;20409;-48
2024/02/08 02:19:41;;;;;;;19.40;11.27;;;;;;;9.53;88.14;99092.31;5070779;28;20127;-45
2024/02/08 02:22:13;;;;;;;19.77;10.73;;;;;;;9.59;87.95;99090.06;5071166;28;20093;-46
2024/02/08 02:24:42;;;;;;;17.75;10.40;;;;;;;9.69;87.17;99084.88;5070782;28;20504;-45
2024/02/08 02:27:12;;;;;;;18.63;10.73;;;;;;;9.69;87.65;99079.56;5071026;28;20129;-43
2024/02/08 02:29:44;;;;;;;21.23;10.50;;;;;;;9.77;87.02;99087.00;5070846;28;20465;-46
2024/02/08 02:32:15;;;;;;;18.70;10.05;;;;;;;9.71;87.60;99083.81;5070720;28;20474;-45
2024/02/08 02:34:47;;;;;;;16.38;9.57;;;;;;;9.82;86.82;99082.16;5071125;28;20136;-47
2024/02/08 02:37:18;;;;;;;18.58;8.95;;;;;;;9.83;86.88;99075.84;5070862;28;20481;-44
2024/02/08 02:39:47;;;;;;;17.00;9.57;;;;;;;9.91;86.46;99078.78;5070852;28;20045;-46
2024/02/08 02:42:15;;;;;;;16.35;9.88;;;;;;;9.78;87.61;99088.69;5070734;28;20417;-45
2024/02/08 02:44:43;;;;;;;18.23;10.30;;;;;;;9.69;88.73;99095.53;5070796;28;20052;-46
2024/02/08 02:47:11;;;;;;;17.15;9.32;;;;;;;9.61;89.46;99095.25;5070640;28;20454;-46
2024/02/08 02:49:41;;;;;;;15.60;9.10;;;;;;;9.77;88.32;99097.63;5070991;28;20045;-46
2024/02/08 02:52:10;;;;;;;17.20;9.38;;;;;;;9.77;87.22;99092.31;5074878;28;20049;-45
2024/02/08 02:54:42;;;;;;;19.95;9.75;;;;;;;9.72;87.74;99093.50;5074614;28;20063;-44
2024/02/08 02:57:11;;;;;;;18.10;9.15;;;;;;;9.67;88.81;99092.16;5074561;28;20154;-45
2024/02/08 02:59:42;;;;;;;17.23;9.38;;;;;;;9.66;88.83;99096.63;5074192;28;20076;-45
2024/02/08 03:02:10;;;;;;;17.27;9.18;;;;;;;9.56;89.24;99089.44;5074450;28;20049;-44
2024/02/08 03:04:40;;;;;;;14.20;9.13;;;;;;;9.48;91.08;99100.66;5074345;28;20072;-46
2024/02/08 03:07:10;;;;;;;13.93;8.63;;;;;;;9.48;91.24;99102.47;5074182;28;20044;-45
2024/02/08 03:09:40;;;;;;;18.65;9.93;;;;;;;9.49;91.42;99105.00;5074299;28;20707;-45
2024/02/08 03:12:09;;;;;;;19.20;9.35;;;;;;;9.56;90.84;99106.25;5074014;28;20047;-45
2024/02/08 03:14:38;;;;;;;16.05;9.32;;;;;;;9.51;91.51;99108.41;5074250;28;20473;-46
2024/02/08 03:17:12;;;;;;;17.10;9.18;;;;;;;9.48;91.63;99108.63;5074285;28;20362;-46
2024/02/08 03:19:40;;;;;;;;;;;;;;;9.55;91.88;99107.19;5075387;28;20044;-45
2024/02/08 03:22:08;;;;;;;12.90;8.40;;;;;;;9.63;90.70;99107.47;5075068;28;19935;-45
2024/02/08 03:24:37;;;;;;;16.25;9.30;;;;;;;9.64;90.11;99111.00;5074047;28;20454;-47
2024/02/08 03:27:07;;;;;;;16.50;8.80;;;;;;;9.67;90.06;99119.63;5074166;28;20051;-45
2024/02/08 03:29:36;;;;;;;15.82;8.98;;;;;;;9.67;89.96;99119.63;5073878;28;20045;-45
2024/02/08 03:32:04;;;;;;;13.77;8.48;;;;;;;9.65;90.62;99116.22;5073862;28;20052;-46
2024/02/08 03:34:35;;;;;;;18.23;9.52;;;;;;;9.79;89.26;99111.69;5073695;28;20387;-46
2024/02/08 03:37:06;;;;;;;15.55;8.93;;;;;;;9.74;89.31;99110.19;5073531;28;20194;-45
2024/02/08 03:39:35;;;;;;;15.32;8.65;;;;;;;9.68;89.39;99116.00;5073460;28;20093;-46
2024/02/08 03:42:05;;;;;;;16.27;9.10;;;;;;;9.75;88.92;99121.72;5073963;28;20109;-46
2024/02/08 03:44:35;;;;;;;16.65;8.93;;;;;;;9.77;89.21;99116.28;5073809;28;20048;-48
2024/02/08 03:47:04;;;;;;;21.10;9.40;;;;;;;9.78;89.00;99116.16;5073780;28;20131;-45
2024/02/08 03:49:34;;;;;;;16.27;9.35;;;;;;;9.49;91.06;99125.47;5073495;28;20079;-45
2024/02/08 03:52:04;;;;;;;16.27;8.57;;;;;;;9.52;90.84;99115.41;5073581;28;20040;-46
2024/02/08 03:54:33;;;;;;;15.18;9.13;;;;;;;9.65;90.36;99121.56;5073563;28;20145;-46
2024/02/08 03:57:04;;;;;;;16.85;8.90;;;;;;;9.63;90.42;99122.63;5073387;28;20500;-46
2024/02/08 03:59:40;;;;;;;16.15;9.38;;;;;;;9.30;93.10;99105.50;5073394;28;20060;-46
2024/02/08 04:02:10;;;;;;;17.55;8.73;;;;;;;9.43;93.42;99095.66;5072290;28;20053;-46
2024/02/08 04:04:53;;;;;;;17.50;9.40;;;;;;;9.38;92.96;99105.81;5073564;28;20083;-45
2024/02/08 04:07:22;;;;;;;16.33;9.15;;;;;;;9.31;94.20;99109.03;5073354;28;20047;-46
2024/02/08 04:09:56;;;;;;;18.98;9.40;;;;;;;9.21;95.95;99102.66;5073260;28;20451;-44
2024/02/08 04:54:09;;;;;;;16.10;9.45;;;;;;;9.42;94.14;99095.78;5046794;28;20438;-46
2024/02/08 04:56:38;;;;;;;17.08;9.25;;;;;;;9.43;94.54;99105.44;5072242;28;20052;-46
2024/02/08 04:59:06;;;;;;;17.65;9.50;;;;;;;9.48;94.04;99100.66;5072407;28;20090;-46
2024/02/08 05:01:53;;;;;;;16.83;9.32;;;;;;;9.51;93.46;99108.41;5072401;28;20040;-47
2024/02/08 05:04:23;;;;;;;14.90;9.25;;;;;;;9.50;93.42;99109.38;5071989;28;20074;-46
2024/02/08 05:06:52;;;;;;;14.70;9.15;;;;;;;9.55;93.04;99106.34;5071743;28;20098;-46
2024/02/08 05:09:21;;;;;;;17.33;9.30;;;;;;;9.46;93.46;99099.94;5072072;28;20060;-44
2024/02/08 05:11:50;;;;;;;16.27;9.32;;;;;;;9.33;94.03;99107.09;5071850;28;20056;-45
2024/02/08 05:14:20;;;;;;;16.40;9.48;;;;;;;9.40;94.57;99122.50;5071825;28;20135;-45
2024/02/08 05:16:54;;;;;;;17.20;9.13;;;;;;;9.40;94.43;99121.66;5072028;28;20063;-45
2024/02/08 05:19:25;;;;;;;17.58;9.60;;;;;;;9.45;94.37;99133.66;5071537;28;20405;-49
2024/02/08 05:21:58;;;;;;;15.07;9.05;;;;;;;9.38;94.86;99140.41;5071631;28;20528;-47
2024/02/08 05:24:28;;;;;;;14.80;9.02;;;;;;;9.36;95.85;99136.13;5071627;28;20562;-46
2024/02/08 05:26:57;;;;;;;15.98;9.90;;;;;;;9.43;95.60;99122.28;5071649;28;20044;-45
2024/02/08 05:29:26;;;;;;;14.00;8.80;;;;;;;9.51;94.79;99132.34;5071686;28;20413;-44
2024/02/08 05:31:54;;;;;;;16.60;10.00;;;;;;;9.59;94.09;99137.13;5071413;28;20114;-46
2024/02/08 05:34:25;;;;;;;19.67;10.10;;;;;;;9.62;93.53;99135.06;5071635;28;20049;-46
2024/02/08 05:36:55;;;;;;;20.27;10.90;;;;;;;9.53;93.89;99142.88;5071469;28;20051;-46
2024/02/08 05:39:24;;;;;;;19.52;10.50;;;;;;;9.52;94.07;99141.19;5071561;28;20120;-45
2024/02/08 05:41:55;;;;;;;18.85;11.13;;;;;;;9.60;93.79;99139.66;5071382;28;20048;-44
2024/02/08 05:44:29;;;;;;;20.35;10.93;;;;;;;9.60;93.57;99137.00;5071722;28;20052;-46
2024/02/08 05:47:06;;;;;;;22.58;11.30;;;;;;;9.63;92.89;99127.94;5071726;28;20041;-45
2024/02/08 05:49:36;;;;;;;22.20;11.18;;;;;;;9.52;94.17;99139.38;5075675;28;20071;-49
2024/02/08 05:52:06;;;;;;;20.42;10.52;;;;;;;9.53;93.89;99127.75;5071931;28;20139;-45
2024/02/08 05:54:40;;;;;;;20.55;11.02;;;;;;;9.43;94.89;99126.75;5070169;28;20067;-46
2024/02/08 05:57:10;;;;;;;18.03;9.80;;;;;;;9.38;96.12;99131.56;5071129;28;20052;-44
2024/02/08 05:59:40;;;;;;;20.45;10.77;;;;;;;9.23;97.45;99138.84;5071250;28;20044;-45
2024/02/08 06:02:22;;;;;;;20.00;11.10;;;;;;;9.24;100.00;99126.38;5071193;28;20105;-43
2024/02/08 06:04:59;;;;;;;20.30;10.75;;;;;;;9.33;100.00;99136.34;5071240;28;20049;-44
2024/02/08 06:07:34;;;;;;;20.90;9.95;;;;;;;9.41;99.34;99144.63;5071079;28;20186;-46
2024/02/08 06:10:13;;;;;;;19.40;10.57;;;;;;;9.43;98.17;99145.38;5071227;28;20040;-45
2024/02/08 06:12:51;;;;;;;19.85;10.20;;;;;;;9.42;98.48;99147.19;5071026;28;20053;-48
2024/02/08 06:15:25;;;;;;;18.38;9.23;;;;;;;9.47;97.55;99152.19;5071064;28;20497;-44
2024/02/08 06:17:58;;;;;;;16.02;10.07;;;;;;;9.55;96.63;99147.13;5070886;28;20079;-44
2024/02/08 06:20:33;;;;;;;18.80;10.60;;;;;;;9.63;95.18;99150.09;5071396;28;20048;-45
2024/02/08 06:23:16;;;;;;;24.58;10.10;;;;;;;9.72;94.27;99144.09;5071012;28;20051;-45
2024/02/08 06:26:20;;;;;;;17.13;9.48;;;;;;;9.68;93.55;99153.28;5070298;28;20047;-43
2024/02/08 06:28:41;;;;;;;19.23;9.63;;;;;;;9.58;93.86;99149.59;5070431;28;20442;-45
2024/02/08 06:31:14;;;;;;;19.95;9.73;;;;;;;9.69;93.58;99154.97;5070576;28;20041;-46
2024/02/08 06:33:59;;;;;;;;;;;;;;;9.72;92.91;99157.41;5070951;28;20091;-45
2024/02/08 06:36:30;;;;;;;18.52;10.15;;;;;;;9.71;92.60;99158.38;5070230;28;20418;-47
2024/02/08 06:39:20;;;;;;;17.30;9.82;;;;;;;9.75;92.50;99159.00;5070266;28;20104;-45
2024/02/08 06:41:52;;;;;;;19.65;9.60;;;;;;;9.80;92.37;99161.31;5070801;28;20490;-46
2024/02/08 06:47:29;;;;;;;17.92;10.10;;;;;;;9.80;91.74;99161.31;5070675;28;20281;-47
2024/02/08 07:37:26;;;;;;;21.17;11.38;;;;;;;10.28;87.36;99207.44;5071264;28;20508;-45
2024/02/08 07:40:00;;;;;;;22.57;11.90;;;;;;;10.40;86.45;99208.31;5073683;28;20147;-45
2024/02/08 07:42:32;;;;;;;21.98;12.05;;;;;;;10.34;86.48;99209.66;5073935;28;20079;-46
2024/02/08 07:45:04;;;;;;;20.42;11.80;;;;;;;10.33;86.53;99207.97;5072826;28;20048;-46
2024/02/08 07:47:34;;;;;;;22.80;12.13;;;;;;;10.24;86.64;99209.50;5072934;28;20040;-47
2024/02/08 07:50:05;;;;;;;21.77;13.88;;;;;;;10.21;86.81;99203.50;5071660;28;20312;-44
2024/02/08 07:52:45;;;;;;;21.85;13.07;;;;;;;10.29;86.57;99202.00;5073016;28;20162;-45
2024/02/08 07:55:26;;;;;;;21.10;12.15;;;;;;;10.27;86.34;99209.25;5073094;28;20060;-45
2024/02/08 07:57:58;;;;;;;20.67;12.70;;;;;;;10.22;86.36;99207.91;5073193;28;20056;-46
2024/02/08 08:00:41;;;;;;;27.42;13.45;;;;;;;10.23;87.17;99209.59;5072783;28;20098;-45
2024/02/08 08:03:15;;;;;;;23.40;12.05;;;;;;;10.18;87.94;99215.25;5073279;28;20048;-46
2024/02/08 08:05:51;;;;;;;23.95;12.80;;;;;;;10.09;88.74;99210.59;5073240;28;20063;-46
2024/02/08 08:08:25;;;;;;;23.80;12.65;;;;;;;10.11;88.85;99207.81;5072950;28;20051;-46
2024/02/08 08:11:02;;;;;;;26.58;13.45;;;;;;;10.14;88.63;99208.47;5073005;28;20055;-45
2024/02/08 08:14:06;;;;;;;23.85;12.40;;;;;;;10.17;88.45;99205.56;5073319;28;20432;-45
2024/02/08 08:17:07;;;;;;;25.58;12.48;;;;;;;10.37;87.32;99204.09;5072866;28;20143;-46
2024/02/08 08:19:38;;;;;;;26.38;13.20;;;;;;;10.44;86.97;99205.31;5072608;28;20040;-44
2024/02/08 08:22:18;;;;;;;21.73;11.65;;;;;;;10.54;86.29;99200.16;5072854;28;20434;-45
2024/02/08 08:25:28;;;;;;;23.88;12.85;;;;;;;10.63;85.54;99187.94;5072762;28;20049;-44
2024/02/08 08:28:29;;;;;;;21.95;12.57;;;;;;;10.66;86.07;99196.53;5072649;28;20053;-45
2024/02/08 08:31:16;;;;;;;22.80;11.98;;;;;;;10.85;84.84;99196.78;5072841;28;20462;-44
2024/02/08 08:33:59;;;;;;;24.88;12.43;;;;;;;11.04;83.07;99203.38;5072210;28;20458;-47
2024/02/08 08:36:28;;;;;;;23.85;12.30;;;;;;;11.21;82.61;99194.88;5072490;28;20052;-45
2024/02/08 08:39:46;;;;;;;24.27;12.63;;;;;;;11.44;81.33;99193.88;5072712;28;20049;-46
2024/02/08 08:41:48;;;;;;;22.38;11.95;;;;;;;11.66;79.03;99189.47;5072522;28;20044;-45
2024/02/08 08:44:18;;;;;;;23.65;11.45;;;;;;;11.72;78.43;99186.31;5072511;28;20052;-46
2024/02/08 08:46:47;;;;;;;19.67;11.40;;;;;;;11.88;76.49;99189.47;5072281;28;20402;-45
2024/02/08 08:49:20;;;;;;;20.90;11.00;;;;;;;12.01;75.51;99189.28;5072069;28;20056;-44
2024/02/08 08:51:58;;;;;;;30.15;11.13;;;;;;;12.15;75.14;99193.47;5072372;28;20049;-47
2024/02/08 08:54:30;;;;;;;28.52;12.93;;;;;;;12.26;74.27;99193.44;5072313;28;20517;-45
2024/02/08 08:56:58;;;;;;;26.35;12.60;;;;;;;12.34;73.77;99193.63;5072041;28;20052;-45
2024/02/08 08:59:29;;;;;;;23.30;11.48;;;;;;;12.41;72.70;99186.78;5072317;28;20052;-44
2024/02/08 09:02:00;;;;;;;20.52;11.52;;;;;;;12.53;72.25;99192.91;5072392;28;20053;-44
2024/02/08 09:04:36;;;;;;;23.33;10.15;;;;;;;12.57;72.05;99186.34;5072095;28;20052;-45
2024/02/08 09:07:10;;;;;;;23.10;9.73;;;;;;;12.51;71.07;99193.06;5072158;28;20132;-46
2024/02/08 09:10:00;;;;;;;23.45;10.50;;;;;;;12.33;72.24;99190.09;5072018;28;20071;-47
2024/02/08 09:12:36;;;;;;;23.15;11.05;;;;;;;12.24;73.01;99185.53;5072085;28;20048;-47
2024/02/08 09:18:08;;;;;;;22.33;11.10;;;;;;;12.39;72.65;99188.75;5150032;27;20375;-45
2024/02/08 09:20:38;;;;;;;20.73;10.80;;;;;;;12.40;71.83;99190.44;5150065;27;20126;-43
2024/02/08 09:23:14;;;;;;;30.83;12.38;;;;;;;12.45;71.80;99193.59;5150017;27;20070;-47
2024/02/08 09:25:44;;;;;;;16.95;9.20;;;;;;;12.57;71.21;99194.38;5149983;27;20038;-46
2024/02/08 09:28:29;;;;;;;24.17;10.77;;;;;;;12.60;70.68;99180.72;5149922;27;20047;-45
2024/02/08 09:31:12;;;;;;;22.90;11.20;;;;;;;12.50;70.14;99188.69;5149990;27;20050;-46
2024/02/08 09:33:47;;;;;;;24.42;11.20;;;;;;;12.65;70.08;99188.38;5149861;27;20123;-45
2024/02/08 09:36:16;;;;;;;17.77;9.07;;;;;;;12.61;69.79;99185.94;5149717;27;20064;-44
2024/02/08 09:38:45;;;;;;;20.25;9.60;;;;;;;12.54;69.81;99191.94;5149632;27;20146;-45
2024/02/08 09:41:17;;;;;;;18.33;8.32;;;;;;;12.61;69.26;99188.63;5149611;27;20043;-43
2024/02/08 09:43:46;;;;;;;17.70;7.55;;;;;;;12.59;69.08;99190.59;5149641;27;20138;-46
2024/02/08 09:46:49;;;;;;;14.60;6.88;;;;;;;12.77;68.20;99193.50;5149596;27;20058;-45
2024/02/08 09:49:12;;;;;;;17.38;7.20;;;;;;;12.80;68.33;99192.41;5149283;27;20121;-45
2024/02/08 09:51:51;;;;;;;12.43;6.75;;;;;;;12.73;68.13;99191.22;5149426;27;20141;-45
2024/02/08 09:54:27;;;;;;;16.48;7.78;;;;;;;12.71;67.88;99187.84;5149506;27;20043;-44
2024/02/08 09:57:02;;;;;;;14.45;6.57;;;;;;;12.79;67.28;99190.69;5149392;27;20043;-48
2024/02/08 10:02:32;;;;;;;15.10;6.88;;;;;;;13.26;65.79;99183.94;5128319;27;20429;-44
2024/02/08 10:08:05;;;;;;;15.88;6.80;;;;;;;13.40;64.90;99190.72;5128349;27;20059;-45
2024/02/08 10:10:43;;;;;;;13.00;6.55;;;;;;;13.45;64.29;99175.97;5128612;28;20044;-44
2024/02/08 10:13:26;;;;;;;12.18;6.10;;;;;;;13.39;64.64;99183.69;5128472;27;20047;-45
2024/02/08 10:15:56;;;;;;;11.05;5.75;;;;;;;13.42;64.54;99176.25;5128313;27;20052;-46
2024/02/08 10:18:37;;;;;;;11.52;5.65;;;;;;;13.62;63.26;99184.31;5128139;27;20156;-45
2024/02/08 10:21:12;;;;;;;17.60;5.93;;;;;;;13.80;62.95;99181.78;5136513;27;20100;-44
2024/02/08 10:23:48;;;;;;;11.13;6.10;;;;;;;14.01;62.86;99179.88;5147358;27;20512;-44
2024/02/08 10:26:22;;;;;;;12.70;6.65;;;;;;;14.11;62.11;99169.16;5128133;27;20054;-45
2024/02/08 10:28:54;;;;;;;13.55;6.97;;;;;;;14.10;62.69;99164.78;5116958;28;20458;-45
2024/02/08 10:31:26;;;;;;;12.48;7.10;;;;;;;14.22;61.28;99158.28;5114334;28;20488;-43
2024/02/08 10:34:08;;;;;;;7.97;4.47;;;;;;;14.22;59.19;99145.72;5114362;28;20039;-45
2024/02/08 10:36:44;;;;;;;10.65;4.57;;;;;;;13.97;60.37;99154.31;5114201;28;20151;-45
2024/02/08 10:39:24;;;;;;;7.00;4.50;;;;;;;14.37;59.16;99148.78;5114016;28;20047;-45
2024/02/08 10:42:01;;;;;;;7.80;3.60;;;;;;;14.57;57.68;99138.91;5113948;28;20075;-44
2024/02/08 10:44:32;;;;;;;5.80;2.95;;;;;;;14.50;57.78;99127.91;5116826;27;20517;-44
2024/02/08 10:47:09;;;;;;;5.97;3.00;;;;;;;14.42;58.44;99126.91;5131992;27;20074;-44
2024/02/08 10:49:44;;;;;;;7.57;3.40;;;;;;;14.63;58.42;99122.22;5131861;27;20064;-45
2024/02/08 10:52:20;;;;;;;5.75;3.28;;;;;;;14.67;57.84;99120.97;5134492;27;20161;-45
2024/02/08 10:54:52;;;;;;;12.48;5.82;;;;;;;14.76;57.67;99117.38;5134469;27;20513;-45
2024/02/08 11:03:07;;;;;;;6.28;3.15;;;;;;;15.02;57.26;99108.69;5134084;27;20049;-44
2024/02/08 11:05:48;;;;;;;4.93;2.38;;;;;;;15.04;56.83;99115.59;5134624;27;20039;-46
2024/02/08 11:08:32;;;;;;;6.15;2.35;;;;;;;15.03;56.81;99113.06;5134182;27;20135;-43
2024/02/08 11:11:09;;;;;;;6.88;2.58;;;;;;;14.78;57.43;99112.75;5133078;27;20126;-45
2024/02/08 11:13:43;;;;;;;6.53;2.60;;;;;;;14.95;56.97;99113.78;5133869;27;20092;-43
2024/02/08 11:16:21;;;;;;;5.47;2.53;;;;;;;14.98;56.60;99113.50;5133503;27;20059;-47
2024/02/08 11:18:54;;;;;;;5.90;2.85;;;;;;;14.60;57.36;99107.28;5134740;27;20055;-46
2024/02/08 11:21:42;;;;;;;9.73;2.70;;;;;;;14.75;56.64;99110.31;5133797;27;20043;-46
2024/02/08 11:24:27;;;;;;;6.45;2.33;;;;;;;14.79;56.83;99098.31;5134117;27;20047;-44
2024/02/08 11:26:57;;;;;;;5.85;2.50;;;;;;;14.76;56.57;99106.66;5133743;27;20054;-45
2024/02/08 11:29:28;;;;;;;8.70;2.50;;;;;;;14.66;56.94;99105.84;5134340;27;20126;-45
2024/02/08 11:31:57;;;;;;;4.68;2.40;;;;;;;14.78;56.51;99112.75;5133087;27;20050;-51
2024/02/08 11:34:27;;;;;;;5.85;2.30;;;;;;;14.72;56.95;99110.63;5133643;27;20172;-44
2024/02/08 11:36:58;;;;;;;4.85;1.98;;;;;;;14.83;56.17;99102.38;5133481;27;20079;-45
2024/02/08 11:39:30;;;;;;;4.88;2.25;;;;;;;15.01;56.09;99101.63;5132761;27;20043;-45
2024/02/08 11:42:00;;;;;;;5.28;2.10;;;;;;;15.06;55.54;99094.81;5133244;27;20069;-46
2024/02/08 11:44:36;;;;;;;6.32;2.00;;;;;;;15.18;54.81;99090.09;5133444;27;20100;-47
2024/02/08 11:47:18;;;;;;;4.85;2.00;;;;;;;15.33;54.88;99085.88;5133491;27;20043;-45
2024/02/08 11:50:00;;;;;;;5.93;2.20;;;;;;;15.33;54.68;99077.81;5133095;27;20055;-45
2024/02/08 11:52:29;;;;;;;5.50;2.50;;;;;;;15.34;54.81;99084.88;5132729;27;20058;-45
2024/02/08 11:55:08;;;;;;;9.23;3.17;;;;;;;15.39;54.77;99076.38;5133470;27;20043;-45
2024/02/08 11:57:40;;;;;;;8.23;2.95;;;;;;;15.34;54.60;99078.66;5133195;27;20055;-45
2024/02/08 12:00:17;;;;;;;5.32;2.97;;;;;;;15.27;54.79;99070.38;5131568;27;20092;-47
2024/02/08 12:02:56;;;;;;;8.25;3.50;;;;;;;15.28;54.94;99066.69;5133344;27;20055;-44
2024/02/08 12:05:25;;;;;;;6.82;3.08;;;;;;;15.45;54.83;99065.03;5132826;27;20043;-43
2024/02/08 12:07:57;;;;;;;7.45;2.90;;;;;;;15.58;54.42;99064.66;5133102;27;20054;-45
2024/02/08 12:10:27;;;;;;;8.38;3.20;;;;;;;15.55;54.24;99059.59;5132891;27;20043;-46
2024/02/08 12:12:56;;;;;;;7.97;3.33;;;;;;;15.62;54.05;99052.63;5132710;27;20379;-46
2024/02/08 12:15:29;;;;;;;6.68;3.25;;;;;;;15.57;53.93;99057.59;5132746;27;20043;-45
2024/02/08 12:18:05;;;;;;;8.43;3.22;;;;;;;15.54;53.83;99055.19;5132749;27;20096;-46
2024/02/08 12:20:36;;;;;;;6.07;3.38;;;;;;;15.65;53.82;99049.66;5132819;27;20065;-45
2024/02/08 12:23:05;;;;;;;6.65;3.10;;;;;;;15.73;52.92;99047.03;5132145;27;20039;-47
2024/02/08 12:25:34;;;;;;;6.63;2.75;;;;;;;15.62;53.21;99049.94;5132523;27;20047;-46
2024/02/08 12:28:06;;;;;;;6.15;2.83;;;;;;;15.50;53.08;99056.50;5132408;27;20402;-44
2024/02/08 12:30:39;;;;;;;6.65;2.80;;;;;;;15.60;52.13;99046.53;5132690;27;20111;-47
2024/02/08 12:33:10;;;;;;;6.32;3.03;;;;;;;15.70;52.07;99047.34;5132728;27;20054;-45
2024/02/08 12:35:41;;;;;;;4.78;2.90;;;;;;;15.83;51.60;99031.66;5132479;27;20043;-46
2024/02/08 12:38:11;;;;;;;7.85;3.20;;;;;;;16.09;50.69;99036.22;5132261;27;20055;-45
2024/02/08 12:40:44;;;;;;;6.55;3.30;;;;;;;16.24;50.07;99045.44;5131932;27;20047;-49
2024/02/08 12:43:14;;;;;;;7.60;3.30;;;;;;;16.41;49.42;99044.53;5132629;27;20150;-46
2024/02/08 12:45:42;;;;;;;7.18;3.03;;;;;;;16.44;48.29;99051.44;5132970;27;20092;-46
2024/02/08 12:48:13;;;;;;;6.80;3.13;;;;;;;16.31;48.88;99051.88;5132190;27;20519;-47
2024/02/08 12:50:43;;;;;;;8.50;4.18;;;;;;;16.13;49.66;99045.69;5132202;27;20066;-48
2024/02/08 12:53:12;;;;;;;8.88;4.18;;;;;;;15.98;50.14;99046.22;5131789;27;20054;-49
2024/02/08 12:55:42;;;;;;;7.88;3.90;;;;;;;15.92;50.86;99040.63;5132177;27;20054;-46
2024/02/08 12:58:13;;;;;;;8.20;3.80;;;;;;;15.86;50.21;99046.63;5132084;27;20507;-47
2024/02/08 13:00:45;;;;;;;8.38;4.18;;;;;;;15.92;49.90;99041.50;5132134;27;20047;-44
2024/02/08 13:03:16;;;;;;;7.75;4.00;;;;;;;15.90;50.44;99056.91;5132051;27;20165;-44
2024/02/08 13:05:45;;;;;;;9.27;4.25;;;;;;;15.86;50.87;99055.56;5131721;27;20042;-46
2024/02/08 13:08:21;;;;;;;9.63;4.40;;;;;;;15.72;51.77;99058.78;5132179;27;20047;-49
2024/02/08 13:10:59;;;;;;;9.85;4.53;;;;;;;15.64;51.68;99064.09;5133268;27;20050;-47
2024/02/08 13:13:28;;;;;;;10.30;4.65;;;;;;;15.64;51.62;99056.03;5132018;27;20463;-46
2024/02/08 13:16:06;;;;;;;8.45;4.50;;;;;;;15.40;50.91;99059.25;5132035;27;20051;-46
2024/02/08 13:18:38;;;;;;;6.20;3.40;;;;;;;15.20;50.90;99050.50;5131631;27;20145;-45
2024/02/08 13:21:07;;;;;;;6.18;3.70;;;;;;;15.20;51.28;99039.75;5131384;27;20051;-44
2024/02/08 13:23:38;;;;;;;7.63;3.83;;;;;;;15.00;52.26;99032.78;5131849;27;20071;-45
2024/02/08 13:26:08;;;;;;;11.75;4.28;;;;;;;14.98;52.91;99034.78;5131964;27;20078;-45
2024/02/08 13:28:45;;;;;;;10.15;4.80;;;;;;;14.93;53.20;99034.38;5131840;27;20123;-46
2024/02/08 13:31:17;;;;;;;10.48;4.20;;;;;;;14.79;53.38;99047.31;5131255;27;20051;-45
2024/02/08 13:33:46;;;;;;;12.63;4.93;;;;;;;14.87;53.15;99039.38;5132107;27;20039;-45
2024/02/08 13:36:14;;;;;;;8.35;4.65;;;;;;;14.87;53.11;99028.63;5131506;27;20480;-46
2024/02/08 13:38:43;;;;;;;7.43;4.10;;;;;;;14.94;53.00;99039.59;5131501;27;20434;-47
2024/02/08 13:41:13;;;;;;;7.93;4.00;;;;;;;14.95;52.99;99027.88;5130972;27;20558;-45
2024/02/08 13:43:45;;;;;;;10.68;4.65;;;;;;;15.02;53.18;99028.13;5131787;27;20121;-47